createdAt,value
2022-10-05T00:01:27.541Z,8.5
2022-10-05T00:03:53.675Z,8.4
2022-10-05T00:06:18.751Z,8.4
2022-10-05T00:08:44.848Z,8.4
2022-10-05T00:11:10.971Z,8.4
2022-10-05T00:13:37.022Z,8.4
2022-10-05T00:16:03.206Z,8.3
2022-10-05T00:18:29.222Z,8.3
2022-10-05T00:20:55.364Z,8.3
2022-10-05T00:23:21.420Z,8.3
2022-10-05T00:25:47.565Z,8.3
2022-10-05T00:28:13.646Z,8.3
2022-10-05T00:30:39.696Z,8.3
2022-10-05T00:33:05.827Z,8.3
2022-10-05T00:35:31.905Z,8.3
2022-10-05T00:37:57.089Z,8.3
2022-10-05T00:40:23.092Z,8.3
2022-10-05T00:42:49.252Z,8.2
2022-10-05T00:45:15.292Z,8.2
2022-10-05T00:47:41.413Z,8.2
2022-10-05T00:50:07.506Z,8.2
2022-10-05T00:52:33.571Z,8.2
2022-10-05T00:54:59.753Z,8.2
2022-10-05T00:57:25.779Z,8.2
2022-10-05T00:59:51.927Z,8.2
2022-10-05T01:02:17.955Z,8.1
2022-10-05T01:04:44.168Z,8.1
2022-10-05T01:07:10.172Z,8.1
2022-10-05T01:09:35.256Z,8.1
2022-10-05T01:12:01.387Z,8.1
2022-10-05T01:14:27.443Z,8.1
2022-10-05T01:16:53.586Z,8.1
2022-10-05T01:19:19.640Z,8
2022-10-05T01:21:45.788Z,8
2022-10-05T01:24:11.846Z,8
2022-10-05T01:26:38.002Z,8
2022-10-05T01:29:04.043Z,7.9
2022-10-05T01:31:30.195Z,7.9
2022-10-05T01:33:56.247Z,7.9
2022-10-05T01:36:22.320Z,7.9
2022-10-05T01:38:48.458Z,7.8
2022-10-05T01:41:13.546Z,7.8
2022-10-05T01:43:39.701Z,7.8
2022-10-05T01:46:05.718Z,7.7
2022-10-05T01:48:31.813Z,7.7
2022-10-05T01:50:57.922Z,7.7
2022-10-05T01:53:24.009Z,7.7
2022-10-05T01:55:50.124Z,7.6
2022-10-05T01:58:16.196Z,7.6
2022-10-05T02:00:42.323Z,7.6
2022-10-05T02:03:08.415Z,7.6
2022-10-05T02:05:34.534Z,7.6
2022-10-05T02:08:00.610Z,7.6
2022-10-05T02:10:26.761Z,7.5
2022-10-05T02:12:51.820Z,7.5
2022-10-05T02:15:17.893Z,7.5
2022-10-05T02:17:44.031Z,7.5
2022-10-05T02:20:10.059Z,7.5
2022-10-05T02:22:36.215Z,7.5
2022-10-05T02:25:02.267Z,7.5
2022-10-05T02:27:28.362Z,7.5
2022-10-05T02:29:54.482Z,7.5
2022-10-05T02:32:20.544Z,7.6
2022-10-05T02:34:46.663Z,7.6
2022-10-05T02:37:12.744Z,7.6
2022-10-05T02:39:38.873Z,7.6
2022-10-05T02:42:04.937Z,7.7
2022-10-05T02:44:30.104Z,7.7
2022-10-05T02:46:56.149Z,7.7
2022-10-05T02:49:22.251Z,7.8
2022-10-05T02:51:48.349Z,7.8
2022-10-05T02:54:14.430Z,7.8
2022-10-05T02:56:40.558Z,7.9
2022-10-05T02:59:06.633Z,7.9
2022-10-05T03:01:32.804Z,7.9
2022-10-05T03:03:58.809Z,8
2022-10-05T03:06:24.987Z,8
2022-10-05T03:08:51.021Z,8
2022-10-05T03:11:17.176Z,8.1
2022-10-05T03:13:43.201Z,8.1
2022-10-05T03:16:08.302Z,8.1
2022-10-05T03:18:34.442Z,8.1
2022-10-05T03:21:00.482Z,8.2
2022-10-05T03:23:26.585Z,8.2
2022-10-05T03:25:52.701Z,8.2
2022-10-05T03:28:18.773Z,8.2
2022-10-05T03:30:44.888Z,8.2
2022-10-05T03:33:10.968Z,8.2
2022-10-05T03:35:37.094Z,8.2
2022-10-05T03:38:03.190Z,8.2
2022-10-05T03:40:29.304Z,8.2
2022-10-05T03:42:55.348Z,8.2
2022-10-05T03:45:21.513Z,8.2
2022-10-05T03:47:46.577Z,8.2
2022-10-05T03:50:12.669Z,8.2
2022-10-05T03:52:38.777Z,8.2
2022-10-05T03:55:04.853Z,8.2
2022-10-05T03:57:30.980Z,8.2
2022-10-05T03:59:57.041Z,8.2
2022-10-05T04:02:23.185Z,8.1
2022-10-05T04:04:49.232Z,8.1
2022-10-05T04:07:15.390Z,8.1
2022-10-05T04:09:41.426Z,8.1
2022-10-05T04:12:07.518Z,8.1
2022-10-05T04:14:33.638Z,8.1
2022-10-05T04:16:59.705Z,8.1
2022-10-05T04:19:24.868Z,8.1
2022-10-05T04:21:50.911Z,8.1
2022-10-05T04:24:17.004Z,8.1
2022-10-05T04:26:43.137Z,8.1
2022-10-05T04:29:09.202Z,8.1
2022-10-05T04:31:35.317Z,8.1
2022-10-05T04:34:00.464Z,8.1
2022-10-05T04:36:26.584Z,8.1
2022-10-05T04:38:52.638Z,8.1
2022-10-05T04:41:18.783Z,8.1
2022-10-05T04:43:44.846Z,8.1
2022-10-05T04:46:10.898Z,8.1
2022-10-05T04:48:37.009Z,8.1
2022-10-05T04:51:03.084Z,8.1
2022-10-05T04:53:29.210Z,8.1
2022-10-05T04:55:55.289Z,8.1
2022-10-05T04:58:21.413Z,8.1
2022-10-05T05:00:47.462Z,8.1
2022-10-05T05:03:13.636Z,8.1
2022-10-05T05:05:38.699Z,8.1
2022-10-05T05:08:04.807Z,8.1
2022-10-05T05:10:30.916Z,8.1
2022-10-05T05:12:56.978Z,8.1
2022-10-05T05:15:23.104Z,8.1
2022-10-05T05:17:49.206Z,8.1
2022-10-05T05:20:15.243Z,8.2
2022-10-05T05:22:41.346Z,8.2
2022-10-05T05:25:07.509Z,8.2
2022-10-05T05:27:33.547Z,8.2
2022-10-05T05:29:59.650Z,8.2
2022-10-05T05:32:25.748Z,8.2
2022-10-05T05:34:51.811Z,8.2
2022-10-05T05:37:16.991Z,8.2
2022-10-05T05:39:43.062Z,8.2
2022-10-05T05:42:09.120Z,8.2
2022-10-05T05:44:35.234Z,8.2
2022-10-05T05:47:01.327Z,8.2
2022-10-05T05:49:27.438Z,8.2
2022-10-05T05:51:53.508Z,8.2
2022-10-05T05:54:19.639Z,8.2
2022-10-05T05:56:45.703Z,8.2
2022-10-05T05:59:11.843Z,8.1
2022-10-05T06:01:37.899Z,8.1
2022-10-05T06:04:04.115Z,8.1
2022-10-05T06:06:30.086Z,8.1
2022-10-05T06:08:55.202Z,8.1
2022-10-05T06:11:21.375Z,8.1
2022-10-05T06:13:47.390Z,8.1
2022-10-05T06:16:13.529Z,8.1
2022-10-05T06:18:39.636Z,8.1
2022-10-05T06:21:05.699Z,8.1
2022-10-05T06:23:31.833Z,8.1
2022-10-05T06:25:57.870Z,8.1
2022-10-05T06:28:24.105Z,8.1
2022-10-05T06:30:50.139Z,8.1
2022-10-05T06:33:16.180Z,8.2
2022-10-05T06:35:42.266Z,8.2
2022-10-05T06:38:08.449Z,8.2
2022-10-05T06:40:33.462Z,8.3
2022-10-05T06:42:59.552Z,8.3
2022-10-05T06:45:25.665Z,8.3
2022-10-05T06:47:51.821Z,8.4
2022-10-05T06:50:17.898Z,8.4
2022-10-05T06:52:43.931Z,8.4
2022-10-05T06:55:10.086Z,8.5
2022-10-05T06:57:36.302Z,8.5
2022-10-05T07:00:02.278Z,8.5
2022-10-05T07:02:28.451Z,8.5
2022-10-05T07:04:54.415Z,8.5
2022-10-05T07:07:20.514Z,8.5
2022-10-05T07:09:46.614Z,8.5
2022-10-05T07:12:11.761Z,8.5
2022-10-05T07:14:37.842Z,8.5
2022-10-05T07:17:03.967Z,8.5
2022-10-05T07:19:30.045Z,8.5
2022-10-05T07:21:56.160Z,8.5
2022-10-05T07:24:22.223Z,8.5
2022-10-05T07:26:48.333Z,8.6
2022-10-05T07:29:14.414Z,8.6
2022-10-05T07:31:40.483Z,8.6
2022-10-05T07:34:06.612Z,8.7
2022-10-05T07:38:58.809Z,8.7
2022-10-05T07:41:24.994Z,8.8
2022-10-05T07:43:49.983Z,8.8
2022-10-05T07:46:16.169Z,8.8
2022-10-05T07:48:42.248Z,8.9
2022-10-05T07:51:08.293Z,8.9
2022-10-05T07:53:34.363Z,9
2022-10-05T07:56:00.523Z,9
2022-10-05T07:58:26.651Z,9.1
2022-10-05T08:00:52.712Z,9.1
2022-10-05T08:05:44.875Z,9.2
2022-10-05T08:08:10.952Z,9.3
2022-10-05T08:10:37.042Z,9.3
2022-10-05T08:13:03.149Z,9.4
2022-10-05T08:15:28.309Z,9.4
2022-10-05T08:17:54.448Z,9.5
2022-10-05T08:20:20.432Z,9.5
2022-10-05T08:22:46.624Z,9.6
2022-10-05T08:25:12.629Z,9.6
2022-10-05T08:27:38.726Z,9.7
2022-10-05T08:30:04.845Z,9.7
2022-10-05T08:32:30.982Z,9.8
2022-10-05T08:34:57.048Z,9.8
2022-10-05T08:37:23.135Z,9.9
2022-10-05T08:39:49.302Z,9.9
2022-10-05T08:42:15.367Z,10
2022-10-05T08:44:41.505Z,10.1
2022-10-05T08:47:06.528Z,10.1
2022-10-05T08:49:32.594Z,10.2
2022-10-05T08:51:58.848Z,10.3
2022-10-05T08:54:24.788Z,10.3
2022-10-05T08:56:50.937Z,10.4
2022-10-05T08:59:16.996Z,10.4
2022-10-05T09:01:43.234Z,10.5
2022-10-05T09:04:09.175Z,10.6
2022-10-05T09:06:35.260Z,10.7
2022-10-05T09:09:01.375Z,10.8
2022-10-05T09:11:27.486Z,10.9
2022-10-05T09:13:53.581Z,10.9
2022-10-05T09:16:19.709Z,11
2022-10-05T09:18:44.757Z,11.1
2022-10-05T09:21:10.878Z,11.2
2022-10-05T09:23:37.050Z,11.3
2022-10-05T09:26:03.087Z,11.4
2022-10-05T09:28:29.144Z,11.5
2022-10-05T09:30:55.272Z,11.6
2022-10-05T09:33:21.330Z,11.6
2022-10-05T09:35:47.462Z,11.7
2022-10-05T09:38:13.525Z,11.8
2022-10-05T09:40:39.668Z,11.9
2022-10-05T09:43:05.844Z,12
2022-10-05T09:45:31.873Z,12.1
2022-10-05T09:47:57.967Z,12.2
2022-10-05T09:50:23.035Z,12.2
2022-10-05T09:52:49.209Z,12.3
2022-10-05T09:55:15.226Z,12.4
2022-10-05T09:57:41.498Z,12.6
2022-10-05T10:00:07.484Z,12.7
2022-10-05T10:02:33.559Z,12.8
2022-10-05T10:04:59.596Z,12.9
2022-10-05T10:07:25.686Z,13
2022-10-05T10:09:51.889Z,13.1
2022-10-05T10:12:17.882Z,13.2
2022-10-05T10:14:44.003Z,13.3
2022-10-05T10:17:10.102Z,13.4
2022-10-05T10:19:36.204Z,13.5
2022-10-05T10:22:01.419Z,13.6
2022-10-05T10:24:27.486Z,13.7
2022-10-05T10:26:53.515Z,13.8
2022-10-05T10:29:19.573Z,13.9
2022-10-05T10:31:45.708Z,14
2022-10-05T10:34:11.874Z,14.1
2022-10-05T10:36:38.001Z,14.2
2022-10-05T10:39:04.066Z,14.3
2022-10-05T10:41:30.140Z,14.5
2022-10-05T10:43:56.153Z,14.6
2022-10-05T10:46:22.302Z,14.7
2022-10-05T10:48:48.340Z,14.8
2022-10-05T10:51:14.476Z,15
2022-10-05T10:53:39.589Z,15.1
2022-10-05T10:56:05.629Z,15.2
2022-10-05T10:58:31.804Z,15.3
2022-10-05T11:00:57.835Z,15.4
2022-10-05T11:03:23.993Z,15.5
2022-10-05T11:05:50.062Z,15.6
2022-10-05T11:08:16.127Z,15.7
2022-10-05T11:10:42.235Z,15.9
2022-10-05T11:13:08.314Z,16
2022-10-05T11:15:34.480Z,16.1
2022-10-05T11:18:00.497Z,16.2
2022-10-05T11:20:26.658Z,16.3
2022-10-05T11:22:52.686Z,16.4
2022-10-05T11:25:17.799Z,16.5
2022-10-05T11:27:43.933Z,16.6
2022-10-05T11:30:10.047Z,16.7
2022-10-05T11:32:36.203Z,16.8
2022-10-05T11:35:02.250Z,17
2022-10-05T11:37:28.384Z,17.1
2022-10-05T11:39:54.361Z,17.3
2022-10-05T11:42:20.660Z,17.4
2022-10-05T11:44:46.684Z,17.5
2022-10-05T11:47:12.655Z,17.7
2022-10-05T11:49:38.833Z,17.8
2022-10-05T11:52:04.896Z,18
2022-10-05T11:54:30.990Z,18.1
2022-10-05T11:56:56.157Z,18.2
2022-10-05T11:59:22.161Z,18.3
2022-10-05T12:01:48.267Z,18.4
2022-10-05T12:04:14.404Z,18.6
2022-10-05T12:06:40.550Z,18.7
2022-10-05T12:09:06.554Z,18.9
2022-10-05T12:11:32.660Z,19
2022-10-05T12:13:58.769Z,19.2
2022-10-05T12:16:24.874Z,19.3
2022-10-05T12:18:50.915Z,19.4
2022-10-05T12:21:17.076Z,19.5
2022-10-05T12:23:43.103Z,19.7
2022-10-05T12:26:09.184Z,19.8
2022-10-05T12:28:34.345Z,19.9
2022-10-05T12:31:00.403Z,20.1
2022-10-05T12:33:26.558Z,20.1
2022-10-05T12:35:52.593Z,20.2
2022-10-05T12:38:18.695Z,20.3
2022-10-05T12:40:44.797Z,20.4
2022-10-05T12:43:09.905Z,20.5
2022-10-05T12:45:36.086Z,20.6
2022-10-05T12:48:02.100Z,20.7
2022-10-05T12:50:28.237Z,20.8
2022-10-05T12:52:54.282Z,20.9
2022-10-05T12:55:20.374Z,21
2022-10-05T12:57:46.478Z,21.1
2022-10-05T13:00:12.609Z,21.2
2022-10-05T13:02:38.717Z,21.2
2022-10-05T13:05:04.803Z,21.2
2022-10-05T13:07:30.895Z,21.3
2022-10-05T13:09:56.941Z,21.4
2022-10-05T13:12:23.136Z,21.4
2022-10-05T13:14:48.166Z,21.4
2022-10-05T13:17:14.257Z,21.4
2022-10-05T13:19:40.471Z,21.4
2022-10-05T13:22:06.449Z,21.5
2022-10-05T13:24:32.587Z,21.5
2022-10-05T13:26:58.630Z,21.5
2022-10-05T13:29:24.781Z,21.5
2022-10-05T13:31:50.825Z,21.6
2022-10-05T13:34:16.981Z,21.6
2022-10-05T13:36:43.074Z,21.7
2022-10-05T13:39:09.117Z,21.7
2022-10-05T13:41:35.233Z,21.8
2022-10-05T13:44:01.299Z,21.8
2022-10-05T13:46:26.576Z,21.9
2022-10-05T13:48:52.505Z,21.9
2022-10-05T13:51:18.605Z,21.9
2022-10-05T13:53:44.711Z,21.9
2022-10-05T13:56:10.796Z,21.9
2022-10-05T13:58:36.920Z,21.9
2022-10-05T14:01:02.977Z,21.9
2022-10-05T14:03:29.113Z,21.9
2022-10-05T14:05:55.169Z,22
2022-10-05T14:08:21.265Z,22.1
2022-10-05T14:10:47.383Z,22.1
2022-10-05T14:13:13.436Z,22.2
2022-10-05T14:15:39.569Z,22.3
2022-10-05T14:18:04.708Z,22.4
2022-10-05T14:20:30.799Z,22.5
2022-10-05T14:22:56.855Z,22.7
2022-10-05T14:25:22.968Z,23
2022-10-05T14:27:49.101Z,23.5
2022-10-05T14:30:15.131Z,24.1
2022-10-05T14:32:41.243Z,24.7
2022-10-05T14:35:07.324Z,25.2
2022-10-05T14:37:33.456Z,25.6
2022-10-05T14:39:59.571Z,26
2022-10-05T14:42:25.689Z,26.3
2022-10-05T14:44:51.703Z,26.7
2022-10-05T14:47:17.853Z,27.1
2022-10-05T14:49:42.954Z,27.4
2022-10-05T14:52:08.997Z,27.7
2022-10-05T14:54:35.138Z,27.8
2022-10-05T14:57:01.185Z,27.9
2022-10-05T14:59:27.343Z,27.8
2022-10-05T15:01:53.386Z,27.6
2022-10-05T15:04:19.474Z,27.4
2022-10-05T15:06:45.582Z,27.1
2022-10-05T15:09:11.679Z,26.8
2022-10-05T15:11:37.794Z,26.5
2022-10-05T15:14:03.865Z,26.2
2022-10-05T15:16:29.995Z,25.9
2022-10-05T15:18:56.059Z,25.7
2022-10-05T15:21:21.262Z,25.4
2022-10-05T15:23:47.269Z,25.2
2022-10-05T15:26:13.352Z,24.9
2022-10-05T15:28:39.547Z,24.6
2022-10-05T15:31:05.553Z,24.4
2022-10-05T15:33:31.671Z,24.1
2022-10-05T15:35:57.848Z,23.9
2022-10-05T15:38:23.874Z,23.7
2022-10-05T15:40:49.927Z,23.4
2022-10-05T15:43:16.078Z,23.2
2022-10-05T15:45:42.124Z,22.9
2022-10-05T15:48:08.217Z,22.7
2022-10-05T15:50:34.369Z,22.5
2022-10-05T15:52:59.431Z,22.2
2022-10-05T15:55:25.567Z,22
2022-10-05T15:57:51.624Z,21.8
2022-10-05T16:00:17.768Z,21.6
2022-10-05T16:02:43.808Z,21.3
2022-10-05T16:05:09.900Z,21.1
2022-10-05T16:07:36.013Z,20.9
2022-10-05T16:10:02.115Z,20.7
2022-10-05T16:12:28.224Z,20.5
2022-10-05T16:14:54.300Z,20.3
2022-10-05T16:17:20.471Z,20.2
2022-10-05T16:19:46.461Z,20.1
2022-10-05T16:22:12.655Z,20
2022-10-05T16:24:37.747Z,20
2022-10-05T16:27:03.767Z,19.9
2022-10-05T16:29:29.912Z,19.9
2022-10-05T16:31:55.961Z,19.8
2022-10-05T16:34:22.105Z,19.7
2022-10-05T16:36:48.153Z,19.6
2022-10-05T16:39:14.334Z,19.4
2022-10-05T16:41:40.345Z,19.3
2022-10-05T16:44:06.432Z,19.2
2022-10-05T16:46:32.553Z,19.1
2022-10-05T16:48:58.637Z,18.9
2022-10-05T16:51:24.749Z,18.8
2022-10-05T16:53:50.813Z,18.7
2022-10-05T16:56:16.010Z,18.5
2022-10-05T16:58:42.097Z,18.4
2022-10-05T17:01:08.124Z,18.3
2022-10-05T17:03:34.242Z,18.1
2022-10-05T17:06:00.318Z,18
2022-10-05T17:08:26.437Z,17.9
2022-10-05T17:10:52.510Z,17.7
2022-10-05T17:13:18.640Z,17.6
2022-10-05T17:15:44.709Z,17.5
2022-10-05T17:18:10.941Z,17.4
2022-10-05T17:20:36.890Z,17.2
2022-10-05T17:23:03.045Z,17.1
2022-10-05T17:25:29.086Z,17
2022-10-05T17:27:54.319Z,16.9
2022-10-05T17:30:20.386Z,16.7
2022-10-05T17:32:46.499Z,16.6
2022-10-05T17:35:12.469Z,16.5
2022-10-05T17:37:38.581Z,16.4
2022-10-05T17:40:04.673Z,16.4
2022-10-05T17:42:30.772Z,16.3
2022-10-05T17:44:56.866Z,16.3
2022-10-05T17:47:22.985Z,16.2
2022-10-05T17:49:49.049Z,16.1
2022-10-05T17:52:15.177Z,16.1
2022-10-05T17:54:41.247Z,16
2022-10-05T17:57:07.382Z,15.9
2022-10-05T17:59:32.470Z,15.9
2022-10-05T18:01:58.547Z,15.8
2022-10-05T18:04:24.670Z,15.7
2022-10-05T18:06:50.726Z,15.6
2022-10-05T18:09:16.927Z,15.5
2022-10-05T18:11:42.923Z,15.4
2022-10-05T18:14:09.071Z,15.3
2022-10-05T18:16:35.115Z,15.2
2022-10-05T18:19:01.209Z,15.1
2022-10-05T18:21:27.317Z,15.1
2022-10-05T18:23:53.376Z,15
2022-10-05T18:26:19.519Z,14.9
2022-10-05T18:28:45.567Z,14.8
2022-10-05T18:31:10.704Z,14.7
2022-10-05T18:36:02.877Z,14.6
2022-10-05T18:38:29.003Z,14.5
2022-10-05T18:40:55.079Z,14.4
2022-10-05T18:43:21.211Z,14.3
2022-10-05T18:45:47.256Z,14.2
2022-10-05T18:48:13.447Z,14.2
2022-10-05T18:50:39.490Z,14.1
2022-10-05T18:53:05.618Z,14
2022-10-05T18:55:31.645Z,13.9
2022-10-05T18:57:57.749Z,13.9
2022-10-05T19:00:23.865Z,13.8
2022-10-05T19:02:48.953Z,13.7
2022-10-05T19:05:15.095Z,13.7
2022-10-05T19:07:41.167Z,13.6
2022-10-05T19:10:07.295Z,13.5
2022-10-05T19:12:33.336Z,13.5
2022-10-05T19:14:59.426Z,13.4
2022-10-05T19:17:25.536Z,13.3
2022-10-05T19:19:51.613Z,13.3
2022-10-05T19:22:17.739Z,13.2
2022-10-05T19:24:43.814Z,13.1
2022-10-05T19:27:09.945Z,13.1
2022-10-05T19:29:36.002Z,13
2022-10-05T19:32:02.151Z,13
2022-10-05T19:34:27.232Z,12.9
2022-10-05T19:36:53.319Z,12.9
2022-10-05T19:39:19.425Z,12.8
2022-10-05T19:41:45.596Z,12.8
2022-10-05T19:44:11.670Z,12.7
2022-10-05T19:46:37.711Z,12.7
2022-10-05T19:49:03.841Z,12.6
2022-10-05T19:51:29.941Z,12.6
2022-10-05T19:53:55.974Z,12.5
2022-10-05T19:56:22.075Z,12.5
2022-10-05T19:58:48.168Z,12.5
2022-10-05T20:01:14.340Z,12.4
2022-10-05T20:03:40.370Z,12.4
2022-10-05T20:06:05.520Z,12.3
2022-10-05T20:08:31.560Z,12.3
2022-10-05T20:10:57.658Z,12.3
2022-10-05T20:13:23.776Z,12.2
2022-10-05T20:15:49.860Z,12.2
2022-10-05T20:18:15.976Z,12.2
2022-10-05T20:20:42.028Z,12.1
2022-10-05T20:23:08.172Z,12.1
2022-10-05T20:25:34.244Z,12.1
2022-10-05T20:28:00.404Z,12
2022-10-05T20:30:26.436Z,12
2022-10-05T20:32:52.604Z,12
2022-10-05T20:35:18.674Z,12
2022-10-05T20:37:43.726Z,11.9
2022-10-05T20:40:09.860Z,11.9
2022-10-05T20:42:35.930Z,11.8
2022-10-05T20:45:02.066Z,11.8
2022-10-05T20:47:28.138Z,11.8
2022-10-05T20:49:54.264Z,11.7
2022-10-05T20:52:19.351Z,11.7
2022-10-05T20:54:45.407Z,11.7
2022-10-05T20:57:11.565Z,11.7
2022-10-05T20:59:37.614Z,11.7
2022-10-05T21:02:03.747Z,11.6
2022-10-05T21:04:29.802Z,11.6
2022-10-05T21:06:55.957Z,11.6
2022-10-05T21:09:21.994Z,11.6
2022-10-05T21:11:48.084Z,11.5
2022-10-05T21:14:14.191Z,11.5
2022-10-05T21:16:40.291Z,11.5
2022-10-05T21:19:06.406Z,11.5
2022-10-05T21:21:32.456Z,11.5
2022-10-05T21:23:57.578Z,11.4
2022-10-05T21:26:23.707Z,11.4
2022-10-05T21:28:49.768Z,11.4
2022-10-05T21:31:15.882Z,11.3
2022-10-05T21:33:41.954Z,11.3
2022-10-05T21:36:08.149Z,11.3
2022-10-05T21:38:34.154Z,11.3
2022-10-05T21:41:00.286Z,11.2
2022-10-05T21:43:26.337Z,11.2
2022-10-05T21:45:52.494Z,11.2
2022-10-05T21:48:18.536Z,11.2
2022-10-05T21:50:44.632Z,11.1
2022-10-05T21:53:10.735Z,11.1
2022-10-05T21:55:35.827Z,11.1
2022-10-05T21:58:01.976Z,11.1
2022-10-05T22:00:28.040Z,11.1
2022-10-05T22:05:20.223Z,11
2022-10-05T22:07:46.447Z,11
2022-10-05T22:10:12.472Z,11
2022-10-05T22:12:38.537Z,11
2022-10-05T22:15:04.625Z,11
2022-10-05T22:17:30.692Z,11
2022-10-05T22:19:56.827Z,10.9
2022-10-05T22:22:22.881Z,10.9
2022-10-05T22:24:49.026Z,10.9
2022-10-05T22:27:14.109Z,10.9
2022-10-05T22:29:40.190Z,10.9
2022-10-05T22:32:06.310Z,10.9
2022-10-05T22:34:32.397Z,10.9
2022-10-05T22:36:58.562Z,10.8
2022-10-05T22:39:24.643Z,10.8
2022-10-05T22:41:50.717Z,10.8
2022-10-05T22:44:16.763Z,10.8
2022-10-05T22:46:42.913Z,10.8
2022-10-05T22:49:08.957Z,10.8
2022-10-05T22:51:35.051Z,10.8
2022-10-05T22:54:01.164Z,10.8
2022-10-05T22:56:27.255Z,10.7
2022-10-05T22:58:52.404Z,10.7
2022-10-05T23:01:18.449Z,10.7
2022-10-05T23:03:44.607Z,10.7
2022-10-05T23:06:10.658Z,10.7
2022-10-05T23:08:36.730Z,10.7
2022-10-05T23:11:02.854Z,10.7
2022-10-05T23:13:28.931Z,10.6
2022-10-05T23:15:55.050Z,10.6
2022-10-05T23:18:21.127Z,10.6
2022-10-05T23:20:47.263Z,10.6
2022-10-05T23:23:13.312Z,10.6
2022-10-05T23:25:39.460Z,10.6
2022-10-05T23:28:05.509Z,10.6
2022-10-05T23:30:30.607Z,10.6
2022-10-05T23:32:56.745Z,10.6
2022-10-05T23:35:22.797Z,10.6
2022-10-05T23:37:48.942Z,10.6
2022-10-05T23:40:14.990Z,10.6
2022-10-05T23:42:41.086Z,10.6
2022-10-05T23:45:07.211Z,10.6
2022-10-05T23:47:33.278Z,10.6
2022-10-05T23:49:59.424Z,10.6
2022-10-05T23:52:25.475Z,10.5
2022-10-05T23:54:51.595Z,10.5
2022-10-05T23:57:17.664Z,10.5
2022-10-05T23:59:43.801Z,10.5
